sensor_id;sensor_type;location;lat;lon;timestamp;temperature;humidity
12841;DHT22;6487;48.626;12.486;2023-05-31T00:00:31;14.40;79.00
12841;DHT22;6487;48.626;12.486;2023-05-31T00:03:01;14.30;78.50
12841;DHT22;6487;48.626;12.486;2023-05-31T00:05:35;14.20;77.00
12841;DHT22;6487;48.626;12.486;2023-05-31T00:08:04;14.10;77.50
12841;DHT22;6487;48.626;12.486;2023-05-31T00:10:34;14.10;77.40
12841;DHT22;6487;48.626;12.486;2023-05-31T00:13:02;14.10;79.50
12841;DHT22;6487;48.626;12.486;2023-05-31T00:15:30;14.10;79.90
12841;DHT22;6487;48.626;12.486;2023-05-31T00:17:59;14.00;79.60
12841;DHT22;6487;48.626;12.486;2023-05-31T00:20:27;14.00;78.90
12841;DHT22;6487;48.626;12.486;2023-05-31T00:22:55;13.90;78.00
12841;DHT22;6487;48.626;12.486;2023-05-31T00:25:24;14.00;78.90
12841;DHT22;6487;48.626;12.486;2023-05-31T00:27:54;13.90;78.60
12841;DHT22;6487;48.626;12.486;2023-05-31T00:30:25;13.90;78.40
12841;DHT22;6487;48.626;12.486;2023-05-31T00:32:53;13.80;79.80
12841;DHT22;6487;48.626;12.486;2023-05-31T00:35:22;13.90;79.60
12841;DHT22;6487;48.626;12.486;2023-05-31T00:37:50;13.80;79.70
12841;DHT22;6487;48.626;12.486;2023-05-31T00:40:19;13.80;80.50
12841;DHT22;6487;48.626;12.486;2023-05-31T00:42:47;13.80;80.30
12841;DHT22;6487;48.626;12.486;2023-05-31T00:45:20;13.80;80.40
12841;DHT22;6487;48.626;12.486;2023-05-31T00:47:49;13.70;81.50
12841;DHT22;6487;48.626;12.486;2023-05-31T00:50:18;13.60;83.00
12841;DHT22;6487;48.626;12.486;2023-05-31T00:52:51;13.50;83.10
12841;DHT22;6487;48.626;12.486;2023-05-31T00:55:24;13.50;82.50
12841;DHT22;6487;48.626;12.486;2023-05-31T00:57:56;13.50;83.60
12841;DHT22;6487;48.626;12.486;2023-05-31T01:00:27;13.50;82.30
12841;DHT22;6487;48.626;12.486;2023-05-31T01:02:56;13.50;82.40
12841;DHT22;6487;48.626;12.486;2023-05-31T01:05:28;13.40;83.80
12841;DHT22;6487;48.626;12.486;2023-05-31T01:07:57;13.40;83.50
12841;DHT22;6487;48.626;12.486;2023-05-31T01:10:25;13.50;83.50
12841;DHT22;6487;48.626;12.486;2023-05-31T01:13:02;13.20;81.00
12841;DHT22;6487;48.626;12.486;2023-05-31T01:15:38;13.30;82.90
12841;DHT22;6487;48.626;12.486;2023-05-31T01:18:18;13.30;82.50
12841;DHT22;6487;48.626;12.486;2023-05-31T01:20:53;13.30;82.90
12841;DHT22;6487;48.626;12.486;2023-05-31T01:23:34;13.30;82.50
12841;DHT22;6487;48.626;12.486;2023-05-31T01:26:31;13.20;83.40
12841;DHT22;6487;48.626;12.486;2023-05-31T01:29:04;13.20;83.90
12841;DHT22;6487;48.626;12.486;2023-05-31T01:31:37;13.20;83.60
12841;DHT22;6487;48.626;12.486;2023-05-31T01:34:08;13.10;83.70
12841;DHT22;6487;48.626;12.486;2023-05-31T01:36:40;13.10;83.80
12841;DHT22;6487;48.626;12.486;2023-05-31T01:39:09;12.90;82.80
12841;DHT22;6487;48.626;12.486;2023-05-31T01:41:40;12.80;83.10
12841;DHT22;6487;48.626;12.486;2023-05-31T01:44:11;12.80;84.00
12841;DHT22;6487;48.626;12.486;2023-05-31T01:46:41;12.90;84.30
12841;DHT22;6487;48.626;12.486;2023-05-31T01:49:11;12.90;85.10
12841;DHT22;6487;48.626;12.486;2023-05-31T01:51:43;12.80;84.90
12841;DHT22;6487;48.626;12.486;2023-05-31T01:54:12;12.80;85.00
12841;DHT22;6487;48.626;12.486;2023-05-31T01:56:45;12.80;85.30
12841;DHT22;6487;48.626;12.486;2023-05-31T01:59:15;12.80;85.70
12841;DHT22;6487;48.626;12.486;2023-05-31T02:01:44;12.70;85.50
12841;DHT22;6487;48.626;12.486;2023-05-31T02:04:17;12.60;86.10
12841;DHT22;6487;48.626;12.486;2023-05-31T02:06:46;12.60;85.70
12841;DHT22;6487;48.626;12.486;2023-05-31T02:09:14;12.50;86.10
12841;DHT22;6487;48.626;12.486;2023-05-31T02:11:44;12.60;86.20
12841;DHT22;6487;48.626;12.486;2023-05-31T02:14:12;12.50;86.60
12841;DHT22;6487;48.626;12.486;2023-05-31T02:16:41;12.50;86.70
12841;DHT22;6487;48.626;12.486;2023-05-31T02:19:09;12.50;86.80
12841;DHT22;6487;48.626;12.486;2023-05-31T02:21:41;12.50;86.50
12841;DHT22;6487;48.626;12.486;2023-05-31T02:24:09;12.50;87.00
12841;DHT22;6487;48.626;12.486;2023-05-31T02:26:37;12.40;86.80
12841;DHT22;6487;48.626;12.486;2023-05-31T02:29:07;12.40;87.30
12841;DHT22;6487;48.626;12.486;2023-05-31T02:31:38;12.30;87.30
12841;DHT22;6487;48.626;12.486;2023-05-31T02:34:06;12.30;86.70
12841;DHT22;6487;48.626;12.486;2023-05-31T02:36:35;12.10;88.50
12841;DHT22;6487;48.626;12.486;2023-05-31T02:39:03;12.10;87.90
12841;DHT22;6487;48.626;12.486;2023-05-31T02:41:35;12.10;88.90
12841;DHT22;6487;48.626;12.486;2023-05-31T02:44:03;12.20;89.10
12841;DHT22;6487;48.626;12.486;2023-05-31T02:46:33;12.20;88.90
12841;DHT22;6487;48.626;12.486;2023-05-31T02:49:02;12.20;89.60
12841;DHT22;6487;48.626;12.486;2023-05-31T02:51:30;12.10;88.50
12841;DHT22;6487;48.626;12.486;2023-05-31T02:53:58;12.10;88.30
12841;DHT22;6487;48.626;12.486;2023-05-31T02:56:27;12.00;88.30
12841;DHT22;6487;48.626;12.486;2023-05-31T02:58:55;12.00;89.00
12841;DHT22;6487;48.626;12.486;2023-05-31T03:01:23;12.10;89.20
12841;DHT22;6487;48.626;12.486;2023-05-31T03:03:56;12.00;88.60
12841;DHT22;6487;48.626;12.486;2023-05-31T03:06:25;12.00;88.10
12841;DHT22;6487;48.626;12.486;2023-05-31T03:08:53;12.00;89.10
12841;DHT22;6487;48.626;12.486;2023-05-31T03:11:24;11.90;88.70
12841;DHT22;6487;48.626;12.486;2023-05-31T03:13:52;11.90;89.70
12841;DHT22;6487;48.626;12.486;2023-05-31T03:16:21;11.90;89.20
12841;DHT22;6487;48.626;12.486;2023-05-31T03:18:50;11.90;87.80
12841;DHT22;6487;48.626;12.486;2023-05-31T03:21:23;11.90;89.20
12841;DHT22;6487;48.626;12.486;2023-05-31T03:23:52;11.90;88.50
12841;DHT22;6487;48.626;12.486;2023-05-31T03:26:20;11.80;88.50
12841;DHT22;6487;48.626;12.486;2023-05-31T03:28:49;11.80;89.20
12841;DHT22;6487;48.626;12.486;2023-05-31T03:31:17;11.70;90.00
12841;DHT22;6487;48.626;12.486;2023-05-31T03:33:46;11.70;89.90
12841;DHT22;6487;48.626;12.486;2023-05-31T03:36:14;11.70;90.40
12841;DHT22;6487;48.626;12.486;2023-05-31T03:38:44;11.70;90.60
12841;DHT22;6487;48.626;12.486;2023-05-31T03:41:12;11.80;90.90
12841;DHT22;6487;48.626;12.486;2023-05-31T03:43:41;11.80;90.50
12841;DHT22;6487;48.626;12.486;2023-05-31T03:46:09;11.70;91.10
12841;DHT22;6487;48.626;12.486;2023-05-31T03:48:38;11.70;91.20
12841;DHT22;6487;48.626;12.486;2023-05-31T03:51:06;11.80;90.70
12841;DHT22;6487;48.626;12.486;2023-05-31T03:53:35;11.80;90.80
12841;DHT22;6487;48.626;12.486;2023-05-31T03:56:05;11.80;91.20
12841;DHT22;6487;48.626;12.486;2023-05-31T03:58:33;11.80;91.40
12841;DHT22;6487;48.626;12.486;2023-05-31T04:01:02;11.80;91.50
12841;DHT22;6487;48.626;12.486;2023-05-31T04:03:31;11.80;91.50
12841;DHT22;6487;48.626;12.486;2023-05-31T04:05:59;11.90;91.50
12841;DHT22;6487;48.626;12.486;2023-05-31T04:08:28;11.90;91.60
12841;DHT22;6487;48.626;12.486;2023-05-31T04:10:56;11.80;91.40
12841;DHT22;6487;48.626;12.486;2023-05-31T04:13:26;11.80;91.50
12841;DHT22;6487;48.626;12.486;2023-05-31T04:15:55;11.80;91.80
12841;DHT22;6487;48.626;12.486;2023-05-31T04:18:23;11.90;91.90
12841;DHT22;6487;48.626;12.486;2023-05-31T04:20:51;12.00;92.10
12841;DHT22;6487;48.626;12.486;2023-05-31T04:23:20;12.00;92.20
12841;DHT22;6487;48.626;12.486;2023-05-31T04:25:48;12.00;92.20
12841;DHT22;6487;48.626;12.486;2023-05-31T04:28:16;12.00;92.10
12841;DHT22;6487;48.626;12.486;2023-05-31T04:30:47;12.10;93.10
12841;DHT22;6487;48.626;12.486;2023-05-31T04:33:16;12.10;92.50
12841;DHT22;6487;48.626;12.486;2023-05-31T04:35:46;12.10;92.00
12841;DHT22;6487;48.626;12.486;2023-05-31T04:38:14;12.20;92.10
12841;DHT22;6487;48.626;12.486;2023-05-31T04:40:43;12.20;91.70
12841;DHT22;6487;48.626;12.486;2023-05-31T04:43:12;12.20;91.50
12841;DHT22;6487;48.626;12.486;2023-05-31T04:45:40;12.30;92.00
12841;DHT22;6487;48.626;12.486;2023-05-31T04:48:10;12.30;92.90
12841;DHT22;6487;48.626;12.486;2023-05-31T04:50:38;12.30;92.40
12841;DHT22;6487;48.626;12.486;2023-05-31T04:53:07;12.40;92.20
12841;DHT22;6487;48.626;12.486;2023-05-31T04:55:35;12.40;93.50
12841;DHT22;6487;48.626;12.486;2023-05-31T04:58:04;12.50;92.80
12841;DHT22;6487;48.626;12.486;2023-05-31T05:00:32;12.60;92.50
12841;DHT22;6487;48.626;12.486;2023-05-31T05:03:01;12.60;92.30
12841;DHT22;6487;48.626;12.486;2023-05-31T05:05:31;12.70;92.00
12841;DHT22;6487;48.626;12.486;2023-05-31T05:07:59;12.70;91.90
12841;DHT22;6487;48.626;12.486;2023-05-31T05:10:27;12.80;91.50
12841;DHT22;6487;48.626;12.486;2023-05-31T05:12:56;12.90;92.00
12841;DHT22;6487;48.626;12.486;2023-05-31T05:15:24;13.00;92.30
12841;DHT22;6487;48.626;12.486;2023-05-31T05:17:53;13.10;92.50
12841;DHT22;6487;48.626;12.486;2023-05-31T05:20:21;13.10;92.80
12841;DHT22;6487;48.626;12.486;2023-05-31T05:22:51;13.20;92.30
12841;DHT22;6487;48.626;12.486;2023-05-31T05:25:20;13.30;91.50
12841;DHT22;6487;48.626;12.486;2023-05-31T05:27:49;13.30;91.50
12841;DHT22;6487;48.626;12.486;2023-05-31T05:30:18;13.40;91.10
12841;DHT22;6487;48.626;12.486;2023-05-31T05:32:46;13.50;91.10
12841;DHT22;6487;48.626;12.486;2023-05-31T05:35:14;13.60;91.10
12841;DHT22;6487;48.626;12.486;2023-05-31T05:37:43;13.70;90.90
12841;DHT22;6487;48.626;12.486;2023-05-31T05:40:12;13.80;91.40
12841;DHT22;6487;48.626;12.486;2023-05-31T05:42:41;13.80;90.50
12841;DHT22;6487;48.626;12.486;2023-05-31T05:45:11;13.90;90.60
12841;DHT22;6487;48.626;12.486;2023-05-31T05:47:39;14.10;90.90
12841;DHT22;6487;48.626;12.486;2023-05-31T05:50:08;14.20;90.40
12841;DHT22;6487;48.626;12.486;2023-05-31T05:52:37;14.20;90.30
12841;DHT22;6487;48.626;12.486;2023-05-31T05:55:09;14.30;90.80
12841;DHT22;6487;48.626;12.486;2023-05-31T05:57:38;14.40;90.40
12841;DHT22;6487;48.626;12.486;2023-05-31T06:00:08;14.50;90.20
12841;DHT22;6487;48.626;12.486;2023-05-31T06:02:38;14.60;89.80
12841;DHT22;6487;48.626;12.486;2023-05-31T06:05:08;14.60;88.80
12841;DHT22;6487;48.626;12.486;2023-05-31T06:07:36;14.70;88.50
12841;DHT22;6487;48.626;12.486;2023-05-31T06:10:08;14.90;89.70
12841;DHT22;6487;48.626;12.486;2023-05-31T06:12:38;15.10;89.80
12841;DHT22;6487;48.626;12.486;2023-05-31T06:15:08;15.30;88.40
12841;DHT22;6487;48.626;12.486;2023-05-31T06:17:37;15.50;87.80
12841;DHT22;6487;48.626;12.486;2023-05-31T06:20:06;15.50;86.40
12841;DHT22;6487;48.626;12.486;2023-05-31T06:22:37;15.70;86.00
12841;DHT22;6487;48.626;12.486;2023-05-31T06:25:06;15.80;88.30
12841;DHT22;6487;48.626;12.486;2023-05-31T06:27:34;16.00;86.60
12841;DHT22;6487;48.626;12.486;2023-05-31T06:30:05;16.20;85.40
12841;DHT22;6487;48.626;12.486;2023-05-31T06:32:35;16.30;86.50
12841;DHT22;6487;48.626;12.486;2023-05-31T06:35:05;16.50;86.20
12841;DHT22;6487;48.626;12.486;2023-05-31T06:37:34;16.70;85.30
12841;DHT22;6487;48.626;12.486;2023-05-31T06:40:03;16.70;82.20
12841;DHT22;6487;48.626;12.486;2023-05-31T06:42:31;16.90;83.30
12841;DHT22;6487;48.626;12.486;2023-05-31T06:45:00;17.00;82.60
12841;DHT22;6487;48.626;12.486;2023-05-31T06:47:31;17.20;81.30
12841;DHT22;6487;48.626;12.486;2023-05-31T06:49:59;17.30;80.60
12841;DHT22;6487;48.626;12.486;2023-05-31T06:52:29;17.40;81.50
12841;DHT22;6487;48.626;12.486;2023-05-31T06:54:57;17.50;81.70
12841;DHT22;6487;48.626;12.486;2023-05-31T06:57:28;17.60;80.90
12841;DHT22;6487;48.626;12.486;2023-05-31T06:59:56;17.80;83.60
12841;DHT22;6487;48.626;12.486;2023-05-31T07:02:25;17.90;80.20
12841;DHT22;6487;48.626;12.486;2023-05-31T07:04:55;18.00;79.60
12841;DHT22;6487;48.626;12.486;2023-05-31T07:07:26;18.20;79.20
12841;DHT22;6487;48.626;12.486;2023-05-31T07:09:55;18.30;77.80
12841;DHT22;6487;48.626;12.486;2023-05-31T07:12:23;18.30;78.10
12841;DHT22;6487;48.626;12.486;2023-05-31T07:14:52;18.30;76.80
12841;DHT22;6487;48.626;12.486;2023-05-31T07:17:23;18.40;77.10
12841;DHT22;6487;48.626;12.486;2023-05-31T07:19:51;18.50;76.60
12841;DHT22;6487;48.626;12.486;2023-05-31T07:22:21;18.60;75.70
12841;DHT22;6487;48.626;12.486;2023-05-31T07:24:50;18.80;76.90
12841;DHT22;6487;48.626;12.486;2023-05-31T07:27:19;18.90;74.50
12841;DHT22;6487;48.626;12.486;2023-05-31T07:29:48;19.10;75.50
12841;DHT22;6487;48.626;12.486;2023-05-31T07:32:19;19.40;75.00
12841;DHT22;6487;48.626;12.486;2023-05-31T07:34:48;19.30;73.00
12841;DHT22;6487;48.626;12.486;2023-05-31T07:37:31;19.20;73.40
12841;DHT22;6487;48.626;12.486;2023-05-31T07:40:00;19.40;74.70
12841;DHT22;6487;48.626;12.486;2023-05-31T07:42:31;19.50;74.70
12841;DHT22;6487;48.626;12.486;2023-05-31T07:45:00;19.70;75.50
12841;DHT22;6487;48.626;12.486;2023-05-31T07:47:29;19.90;75.60
12841;DHT22;6487;48.626;12.486;2023-05-31T07:49:57;20.00;73.20
12841;DHT22;6487;48.626;12.486;2023-05-31T07:52:30;20.10;74.60
12841;DHT22;6487;48.626;12.486;2023-05-31T07:54:58;20.10;72.70
12841;DHT22;6487;48.626;12.486;2023-05-31T07:57:27;20.20;72.80
12841;DHT22;6487;48.626;12.486;2023-05-31T07:59:56;20.40;73.90
12841;DHT22;6487;48.626;12.486;2023-05-31T08:02:28;20.50;73.60
12841;DHT22;6487;48.626;12.486;2023-05-31T08:05:00;20.60;73.00
12841;DHT22;6487;48.626;12.486;2023-05-31T08:07:28;20.80;75.20
12841;DHT22;6487;48.626;12.486;2023-05-31T08:10:01;20.90;72.70
12841;DHT22;6487;48.626;12.486;2023-05-31T08:12:30;21.00;72.10
12841;DHT22;6487;48.626;12.486;2023-05-31T08:14:59;20.90;72.90
12841;DHT22;6487;48.626;12.486;2023-05-31T08:17:27;21.00;72.50
12841;DHT22;6487;48.626;12.486;2023-05-31T08:19:58;21.20;71.90
12841;DHT22;6487;48.626;12.486;2023-05-31T08:22:27;21.20;70.90
12841;DHT22;6487;48.626;12.486;2023-05-31T08:24:57;21.30;73.00
12841;DHT22;6487;48.626;12.486;2023-05-31T08:27:25;21.50;71.60
12841;DHT22;6487;48.626;12.486;2023-05-31T08:29:55;21.60;72.80
12841;DHT22;6487;48.626;12.486;2023-05-31T08:32:24;21.90;71.80
12841;DHT22;6487;48.626;12.486;2023-05-31T08:34:52;21.90;71.60
12841;DHT22;6487;48.626;12.486;2023-05-31T08:37:21;21.90;69.80
12841;DHT22;6487;48.626;12.486;2023-05-31T08:39:52;21.90;70.10
12841;DHT22;6487;48.626;12.486;2023-05-31T08:42:38;21.70;69.80
12841;DHT22;6487;48.626;12.486;2023-05-31T08:45:09;22.00;70.90
12841;DHT22;6487;48.626;12.486;2023-05-31T08:47:42;22.20;71.80
12841;DHT22;6487;48.626;12.486;2023-05-31T08:50:12;22.30;70.40
12841;DHT22;6487;48.626;12.486;2023-05-31T08:52:43;22.50;71.90
12841;DHT22;6487;48.626;12.486;2023-05-31T08:55:16;22.30;69.30
12841;DHT22;6487;48.626;12.486;2023-05-31T08:57:47;22.50;69.30
12841;DHT22;6487;48.626;12.486;2023-05-31T09:00:18;22.40;68.50
12841;DHT22;6487;48.626;12.486;2023-05-31T09:02:48;22.60;68.90
12841;DHT22;6487;48.626;12.486;2023-05-31T09:05:18;22.70;70.10
12841;DHT22;6487;48.626;12.486;2023-05-31T09:07:47;22.90;71.00
12841;DHT22;6487;48.626;12.486;2023-05-31T09:10:16;23.10;70.30
12841;DHT22;6487;48.626;12.486;2023-05-31T09:12:48;23.00;69.70
12841;DHT22;6487;48.626;12.486;2023-05-31T09:15:16;23.10;67.70
12841;DHT22;6487;48.626;12.486;2023-05-31T09:17:45;23.10;68.20
12841;DHT22;6487;48.626;12.486;2023-05-31T09:20:14;23.10;69.70
12841;DHT22;6487;48.626;12.486;2023-05-31T09:22:47;22.70;67.80
12841;DHT22;6487;48.626;12.486;2023-05-31T09:25:16;22.60;66.20
12841;DHT22;6487;48.626;12.486;2023-05-31T09:27:49;22.70;69.30
12841;DHT22;6487;48.626;12.486;2023-05-31T09:30:18;23.10;69.80
12841;DHT22;6487;48.626;12.486;2023-05-31T09:32:52;23.30;68.80
12841;DHT22;6487;48.626;12.486;2023-05-31T09:35:23;23.40;67.20
12841;DHT22;6487;48.626;12.486;2023-05-31T09:38:03;23.40;69.20
12841;DHT22;6487;48.626;12.486;2023-05-31T09:40:33;23.40;68.30
12841;DHT22;6487;48.626;12.486;2023-05-31T09:43:03;23.50;67.10
12841;DHT22;6487;48.626;12.486;2023-05-31T09:45:31;23.50;65.80
12841;DHT22;6487;48.626;12.486;2023-05-31T09:48:10;23.50;69.40
12841;DHT22;6487;48.626;12.486;2023-05-31T09:50:39;23.80;67.30
12841;DHT22;6487;48.626;12.486;2023-05-31T09:53:16;23.90;67.70
12841;DHT22;6487;48.626;12.486;2023-05-31T09:55:45;23.70;65.30
12841;DHT22;6487;48.626;12.486;2023-05-31T09:58:27;23.50;65.20
12841;DHT22;6487;48.626;12.486;2023-05-31T10:00:58;23.40;66.70
12841;DHT22;6487;48.626;12.486;2023-05-31T10:03:31;23.80;68.90
12841;DHT22;6487;48.626;12.486;2023-05-31T10:06:00;23.90;66.80
12841;DHT22;6487;48.626;12.486;2023-05-31T10:08:29;24.20;67.00
12841;DHT22;6487;48.626;12.486;2023-05-31T10:10:59;24.30;67.00
12841;DHT22;6487;48.626;12.486;2023-05-31T10:13:33;24.30;66.30
12841;DHT22;6487;48.626;12.486;2023-05-31T10:16:06;24.30;67.10
12841;DHT22;6487;48.626;12.486;2023-05-31T10:18:38;24.10;65.20
12841;DHT22;6487;48.626;12.486;2023-05-31T10:21:15;24.30;65.20
12841;DHT22;6487;48.626;12.486;2023-05-31T10:23:55;24.30;66.80
12841;DHT22;6487;48.626;12.486;2023-05-31T10:26:38;24.40;65.70
12841;DHT22;6487;48.626;12.486;2023-05-31T10:29:16;24.60;70.50
12841;DHT22;6487;48.626;12.486;2023-05-31T10:31:51;24.60;65.90
12841;DHT22;6487;48.626;12.486;2023-05-31T10:34:21;24.70;66.10
12841;DHT22;6487;48.626;12.486;2023-05-31T10:36:51;24.70;65.30
12841;DHT22;6487;48.626;12.486;2023-05-31T10:39:26;24.60;66.40
12841;DHT22;6487;48.626;12.486;2023-05-31T10:42:08;24.80;66.40
12841;DHT22;6487;48.626;12.486;2023-05-31T10:44:46;24.70;67.00
12841;DHT22;6487;48.626;12.486;2023-05-31T10:47:28;24.90;64.00
12841;DHT22;6487;48.626;12.486;2023-05-31T10:50:05;24.70;62.60
12841;DHT22;6487;48.626;12.486;2023-05-31T10:52:39;24.70;64.30
12841;DHT22;6487;48.626;12.486;2023-05-31T10:55:18;24.90;66.40
12841;DHT22;6487;48.626;12.486;2023-05-31T10:57:53;25.00;64.40
12841;DHT22;6487;48.626;12.486;2023-05-31T11:00:27;24.90;63.70
12841;DHT22;6487;48.626;12.486;2023-05-31T11:02:57;24.80;65.60
12841;DHT22;6487;48.626;12.486;2023-05-31T11:05:26;25.00;66.80
12841;DHT22;6487;48.626;12.486;2023-05-31T11:07:58;25.10;64.80
12841;DHT22;6487;48.626;12.486;2023-05-31T11:10:30;24.90;63.40
12841;DHT22;6487;48.626;12.486;2023-05-31T11:13:02;25.00;64.00
12841;DHT22;6487;48.626;12.486;2023-05-31T11:15:43;25.20;65.00
12841;DHT22;6487;48.626;12.486;2023-05-31T11:18:14;25.20;63.40
12841;DHT22;6487;48.626;12.486;2023-05-31T11:20:52;25.00;62.90
12841;DHT22;6487;48.626;12.486;2023-05-31T11:23:24;25.00;64.00
12841;DHT22;6487;48.626;12.486;2023-05-31T11:26:15;25.30;65.00
12841;DHT22;6487;48.626;12.486;2023-05-31T11:28:57;25.20;63.20
12841;DHT22;6487;48.626;12.486;2023-05-31T11:31:59;25.30;62.90
12841;DHT22;6487;48.626;12.486;2023-05-31T11:34:33;25.50;61.90
12841;DHT22;6487;48.626;12.486;2023-05-31T11:37:08;25.70;65.10
12841;DHT22;6487;48.626;12.486;2023-05-31T11:39:36;25.40;59.50
12841;DHT22;6487;48.626;12.486;2023-05-31T11:42:06;25.60;60.90
12841;DHT22;6487;48.626;12.486;2023-05-31T11:44:42;25.80;62.20
12841;DHT22;6487;48.626;12.486;2023-05-31T11:47:19;25.90;61.10
12841;DHT22;6487;48.626;12.486;2023-05-31T11:49:49;25.50;60.40
12841;DHT22;6487;48.626;12.486;2023-05-31T11:52:18;25.80;60.90
12841;DHT22;6487;48.626;12.486;2023-05-31T11:54:49;25.70;59.70
12841;DHT22;6487;48.626;12.486;2023-05-31T11:57:17;26.00;60.90
12841;DHT22;6487;48.626;12.486;2023-05-31T11:59:47;26.40;62.60
12841;DHT22;6487;48.626;12.486;2023-05-31T12:02:15;26.30;59.10
12841;DHT22;6487;48.626;12.486;2023-05-31T12:04:46;26.40;59.40
12841;DHT22;6487;48.626;12.486;2023-05-31T12:07:18;26.50;61.30
12841;DHT22;6487;48.626;12.486;2023-05-31T12:09:46;26.40;58.60
12841;DHT22;6487;48.626;12.486;2023-05-31T12:12:15;26.30;59.00
12841;DHT22;6487;48.626;12.486;2023-05-31T12:14:49;26.30;58.40
12841;DHT22;6487;48.626;12.486;2023-05-31T12:17:20;26.50;59.50
12841;DHT22;6487;48.626;12.486;2023-05-31T12:19:50;26.60;60.20
12841;DHT22;6487;48.626;12.486;2023-05-31T12:22:20;26.70;58.10
12841;DHT22;6487;48.626;12.486;2023-05-31T12:24:48;26.60;59.40
12841;DHT22;6487;48.626;12.486;2023-05-31T12:27:18;26.70;59.80
12841;DHT22;6487;48.626;12.486;2023-05-31T12:30:03;26.60;58.70
12841;DHT22;6487;48.626;12.486;2023-05-31T12:32:43;26.40;59.90
12841;DHT22;6487;48.626;12.486;2023-05-31T12:35:14;26.60;59.00
12841;DHT22;6487;48.626;12.486;2023-05-31T12:37:42;26.40;59.50
12841;DHT22;6487;48.626;12.486;2023-05-31T12:40:12;26.30;59.70
12841;DHT22;6487;48.626;12.486;2023-05-31T12:42:42;26.60;58.60
12841;DHT22;6487;48.626;12.486;2023-05-31T12:45:11;26.50;58.50
12841;DHT22;6487;48.626;12.486;2023-05-31T12:47:42;26.80;61.90
12841;DHT22;6487;48.626;12.486;2023-05-31T12:50:11;26.70;61.50
12841;DHT22;6487;48.626;12.486;2023-05-31T12:52:41;26.70;58.70
12841;DHT22;6487;48.626;12.486;2023-05-31T12:55:09;26.60;58.40
12841;DHT22;6487;48.626;12.486;2023-05-31T12:57:38;26.80;58.00
12841;DHT22;6487;48.626;12.486;2023-05-31T13:00:10;26.80;58.80
12841;DHT22;6487;48.626;12.486;2023-05-31T13:02:40;26.70;57.10
12841;DHT22;6487;48.626;12.486;2023-05-31T13:05:08;26.80;58.20
12841;DHT22;6487;48.626;12.486;2023-05-31T13:07:41;26.90;58.50
12841;DHT22;6487;48.626;12.486;2023-05-31T13:10:15;26.80;58.70
12841;DHT22;6487;48.626;12.486;2023-05-31T13:12:43;26.80;57.80
12841;DHT22;6487;48.626;12.486;2023-05-31T13:15:12;26.80;58.30
12841;DHT22;6487;48.626;12.486;2023-05-31T13:17:40;26.60;58.40
12841;DHT22;6487;48.626;12.486;2023-05-31T13:20:12;26.80;58.90
12841;DHT22;6487;48.626;12.486;2023-05-31T13:22:42;26.90;58.70
12841;DHT22;6487;48.626;12.486;2023-05-31T13:25:11;26.90;58.80
12841;DHT22;6487;48.626;12.486;2023-05-31T13:27:42;26.70;57.50
12841;DHT22;6487;48.626;12.486;2023-05-31T13:30:11;26.80;59.00
12841;DHT22;6487;48.626;12.486;2023-05-31T13:32:42;26.80;57.90
12841;DHT22;6487;48.626;12.486;2023-05-31T13:35:11;26.90;58.30
12841;DHT22;6487;48.626;12.486;2023-05-31T13:37:41;26.90;58.00
12841;DHT22;6487;48.626;12.486;2023-05-31T13:40:10;27.00;58.70
12841;DHT22;6487;48.626;12.486;2023-05-31T13:42:39;27.10;56.90
12841;DHT22;6487;48.626;12.486;2023-05-31T13:45:09;27.10;56.90
12841;DHT22;6487;48.626;12.486;2023-05-31T13:47:38;27.20;57.90
12841;DHT22;6487;48.626;12.486;2023-05-31T13:50:07;27.30;59.50
12841;DHT22;6487;48.626;12.486;2023-05-31T13:52:36;27.20;57.50
12841;DHT22;6487;48.626;12.486;2023-05-31T13:55:07;27.30;57.20
12841;DHT22;6487;48.626;12.486;2023-05-31T13:57:36;27.40;58.20
12841;DHT22;6487;48.626;12.486;2023-05-31T14:00:08;27.30;57.30
12841;DHT22;6487;48.626;12.486;2023-05-31T14:02:37;27.20;57.50
12841;DHT22;6487;48.626;12.486;2023-05-31T14:05:10;27.20;57.50
12841;DHT22;6487;48.626;12.486;2023-05-31T14:07:39;27.30;57.20
12841;DHT22;6487;48.626;12.486;2023-05-31T14:10:09;27.40;57.50
12841;DHT22;6487;48.626;12.486;2023-05-31T14:12:38;27.30;57.60
12841;DHT22;6487;48.626;12.486;2023-05-31T14:15:07;27.40;58.40
12841;DHT22;6487;48.626;12.486;2023-05-31T14:17:37;27.40;59.40
12841;DHT22;6487;48.626;12.486;2023-05-31T14:20:06;27.30;59.40
12841;DHT22;6487;48.626;12.486;2023-05-31T14:22:37;27.40;58.70
12841;DHT22;6487;48.626;12.486;2023-05-31T14:25:09;27.20;58.10
12841;DHT22;6487;48.626;12.486;2023-05-31T14:27:38;27.10;57.90
12841;DHT22;6487;48.626;12.486;2023-05-31T14:30:07;27.40;57.70
12841;DHT22;6487;48.626;12.486;2023-05-31T14:32:36;27.20;58.10
12841;DHT22;6487;48.626;12.486;2023-05-31T14:35:05;27.50;56.80
12841;DHT22;6487;48.626;12.486;2023-05-31T14:37:40;27.50;56.70
12841;DHT22;6487;48.626;12.486;2023-05-31T14:40:25;27.30;56.50
12841;DHT22;6487;48.626;12.486;2023-05-31T14:42:53;27.40;59.00
12841;DHT22;6487;48.626;12.486;2023-05-31T14:45:25;27.50;58.10
12841;DHT22;6487;48.626;12.486;2023-05-31T14:48:01;27.60;58.00
12841;DHT22;6487;48.626;12.486;2023-05-31T14:50:32;27.50;56.40
12841;DHT22;6487;48.626;12.486;2023-05-31T14:53:00;27.50;58.20
12841;DHT22;6487;48.626;12.486;2023-05-31T14:55:30;27.60;57.30
12841;DHT22;6487;48.626;12.486;2023-05-31T14:57:58;27.60;56.40
12841;DHT22;6487;48.626;12.486;2023-05-31T15:00:27;27.60;57.10
12841;DHT22;6487;48.626;12.486;2023-05-31T15:02:58;27.50;55.70
12841;DHT22;6487;48.626;12.486;2023-05-31T15:05:30;27.30;55.80
12841;DHT22;6487;48.626;12.486;2023-05-31T15:08:01;27.40;58.20
12841;DHT22;6487;48.626;12.486;2023-05-31T15:10:30;27.20;56.80
12841;DHT22;6487;48.626;12.486;2023-05-31T15:12:59;27.10;57.50
12841;DHT22;6487;48.626;12.486;2023-05-31T15:15:27;27.30;58.00
12841;DHT22;6487;48.626;12.486;2023-05-31T15:17:58;27.40;57.70
12841;DHT22;6487;48.626;12.486;2023-05-31T15:20:27;27.40;58.40
12841;DHT22;6487;48.626;12.486;2023-05-31T15:22:55;27.30;58.40
12841;DHT22;6487;48.626;12.486;2023-05-31T15:25:26;27.10;58.40
12841;DHT22;6487;48.626;12.486;2023-05-31T15:27:56;27.20;57.10
12841;DHT22;6487;48.626;12.486;2023-05-31T15:30:27;27.10;57.00
12841;DHT22;6487;48.626;12.486;2023-05-31T15:33:04;27.10;58.10
12841;DHT22;6487;48.626;12.486;2023-05-31T15:35:32;27.30;58.00
12841;DHT22;6487;48.626;12.486;2023-05-31T15:38:01;27.30;58.60
12841;DHT22;6487;48.626;12.486;2023-05-31T15:40:29;27.20;58.20
12841;DHT22;6487;48.626;12.486;2023-05-31T15:42:59;27.20;57.90
12841;DHT22;6487;48.626;12.486;2023-05-31T15:45:27;27.30;58.60
12841;DHT22;6487;48.626;12.486;2023-05-31T15:47:56;27.10;57.90
12841;DHT22;6487;48.626;12.486;2023-05-31T15:50:24;27.00;57.60